Pilot Point, Texas
Current Conditions -  °F | °C
As of 4:53 AM on Monday 22 Dec 2014 (Local Time) from KDTO Reporting Station
Few Clouds Few Clouds  
Wind Chill:   Ceiling: Unl
Heat Index:   Visibility: 10mi
Dew Point:   Wind: 12mph
Humidity: 86%   Direction: 170°S
Pressure: 29.58"   Gusts: NA
Location:  33.4°N, 96.96°W
Report Text: KDTO 221053Z AUTO 17010KT 10SM FEW016 09/07 A2958 RMK AO2 SLP014 T00940072
Loading
Personal Weather Stations






























Interactive Weather Map New forecast layout! Learn more

10-Day Weather Forecast

Advertisements
Track Severe Weather on mobile